MAPA DE AEROPUERTO

INFORMACIÓN METAR y TAF

METAR FOR LEXJ
ADDS - METARS form results

(1059 UTC 07 May 2021)
Data provider http://aviationweather.gov/metar/data/
 
METAR text: LEXJ 071030Z 05005KT 350V110 9999 BKN038 17/13 Q1019
Conditions at: LEXJ (SANTANDER/PARAYA, ES) observed 1030 UTC 07 May 2021
Temperature: 17.0°C (63°F)
Dewpoint: 13.0°C (55°F) [RH = 77%]
Pressure (altimeter): 30.09 inches Hg (1019.0 mb)
Winds: from the NE (50 degrees) at 6 MPH (5 knots; 2.6 m/s)
Visibility: 6 or more miles (10+ km)
Ceiling: 3800 feet AGL
Clouds: broken clouds at 3800 feet AGL
Weather: no significant weather observed at this time

METAR text: LEXJ 071000Z 06004KT 010V110 9999 BKN035 17/13 Q1019
Conditions at: LEXJ (SANTANDER/PARAYA, ES) observed 1000 UTC 07 May 2021
Temperature: 17.0°C (63°F)
Dewpoint: 13.0°C (55°F) [RH = 77%]
Pressure (altimeter): 30.09 inches Hg (1019.0 mb)
Winds: from the ENE (60 degrees) at 5 MPH (4 knots; 2.1 m/s)
Visibility: 6 or more miles (10+ km)
Ceiling: 3500 feet AGL
Clouds: broken clouds at 3500 feet AGL
Weather: no significant weather observed at this time

Forecast for: LEXJ (SANTANDER/PARAYA, ES)
Text: TAF LEXJ 070800Z 0709/0809 VRB06KT 9999 FEW045 TX21/0712Z TN10/0805Z
Forecast period: 0900 UTC 07 May 2021 to 0900 UTC 08 May 2021
Forecast type: FROM: standard forecast or significant change
Winds: variable direction winds at 7 MPH (6 knots; 3.1 m/s)
Visibility: 6 or more miles (10+ km)
Ceiling: at least 12,000 feet AGL
Clouds: few clouds at 4500 feet AGL
Weather: no significant weather forecast for this period
Text: PROB30
Forecast period: 1100 to 1600 UTC 07 May 2021
Forecast type: TEMPORARY: The following changes expected for less than half the time period
Winds: from the NE (40 degrees) at 12 MPH (10 knots; 5.1 m/s)
Visibility: missing
Ceiling: unknown
Clouds: missing
Weather: no significant weather forecast for this period
Text: TEMPO 0711/0716 04010KT
Forecast period: 0200 to 0400 UTC 08 May 2021
Forecast type: TEMPORARY: The following changes expected for less than half the time period
Visibility: 2.49 miles (4.01 km)
Ceiling: unknown
Clouds: missing
Weather: BR  (mist)